Time;durP1;ratioP1;P1;durP2;ratioP2;P2;SDS_P1;SDS_P2;PMS_P1;PMS_P2;Temp;Humidity;BMP_temperature;BMP_pressure;BME280_temperature;BME280_humidity;BME280_pressure;Samples;Min_cycle;Max_cycle;Signal;HPM_P1;HPM_P2
2023/07/12 00:02:05;;;;;;;;;;;25.30;58.70;;;;;;10289191;28;94475;-62
2023/07/12 00:07:11;;;;;;;;;;;25.30;58.70;;;;;;10286629;28;95795;-62
2023/07/12 00:12:13;;;;;;;;;;;25.30;58.70;;;;;;10289951;28;93516;-62
2023/07/12 00:17:15;;;;;;;;;;;25.30;58.70;;;;;;10288184;28;93585;-61
2023/07/12 00:22:17;;;;;;;;;;;25.20;58.60;;;;;;10287731;28;92957;-62
2023/07/12 00:27:19;;;;;;;;;;;25.20;58.60;;;;;;10288159;28;93690;-61
2023/07/12 00:32:20;;;;;;;;;;;25.20;58.60;;;;;;10289783;28;93554;-62
2023/07/12 00:37:22;;;;;;;;;;;25.20;58.60;;;;;;10288989;28;93559;-62
2023/07/12 00:42:33;;;;;;;;;;;25.20;58.60;;;;;;10288621;28;91730;-62
2023/07/12 00:47:36;;;;;;;;;;;25.20;58.60;;;;;;10287633;28;93588;-62
2023/07/12 00:52:37;;;;;;;;;;;25.20;58.60;;;;;;10288566;28;92572;-62
2023/07/12 00:57:39;;;;;;;;;;;25.20;58.50;;;;;;10286027;28;96903;-62
2023/07/12 01:02:44;;;;;;;;;;;25.20;58.50;;;;;;10255449;28;92615;-61
2023/07/12 01:07:46;;;;;;;;;;;25.20;58.50;;;;;;10287906;28;93483;-62
2023/07/12 01:12:48;;;;;;;;;;;25.20;59.40;;;;;;10288608;28;93789;-61
2023/07/12 01:17:50;;;;;;;;;;;25.20;58.30;;;;;;10287328;28;93535;-62
2023/07/12 01:22:53;;;;;;;;;;;25.20;58.30;;;;;;10288165;28;94049;-61
2023/07/12 01:27:54;;;;;;;;;;;25.20;58.30;;;;;;10270287;28;94587;-62
2023/07/12 01:32:56;;;;;;;;;;;25.20;58.10;;;;;;10270779;28;92760;-61
2023/07/12 01:37:58;;;;;;;;;;;25.20;58.10;;;;;;10287430;28;93890;-62
2023/07/12 01:43:00;;;;;;;;;;;25.20;58.10;;;;;;10286954;28;93455;-61
2023/07/12 01:48:02;;;;;;;;;;;25.20;57.90;;;;;;10285028;28;96933;-61
2023/07/12 01:53:03;;;;;;;;;;;25.20;57.90;;;;;;10286776;28;94658;-62
2023/07/12 01:58:05;;;;;;;;;;;25.20;57.90;;;;;;10290372;28;93511;-62
2023/07/12 02:03:07;;;;;;;;;;;25.20;57.90;;;;;;10276572;28;94135;-62
2023/07/12 02:08:09;;;;;;;;;;;25.20;57.90;;;;;;10293308;28;93504;-62
2023/07/12 02:13:11;;;;;;;;;;;25.20;57.90;;;;;;10293857;28;92996;-62
2023/07/12 02:18:13;;;;;;;;;;;25.10;57.70;;;;;;10275841;28;93501;-65
2023/07/12 02:23:15;;;;;;;;;;;25.20;57.80;;;;;;10294171;28;92727;-66
2023/07/12 02:28:17;;;;;;;;;;;25.20;57.80;;;;;;10292905;28;94685;-65
2023/07/12 02:33:18;;;;;;;;;;;25.20;57.80;;;;;;10293798;28;94479;-65
2023/07/12 02:38:20;;;;;;;;;;;25.20;57.80;;;;;;10289775;28;94935;-65
2023/07/12 02:43:22;;;;;;;;;;;25.20;57.80;;;;;;10291756;28;93533;-65
2023/07/12 02:48:23;;;;;;;;;;;25.20;57.80;;;;;;10292237;28;94610;-65
2023/07/12 02:53:28;;;;;;;;;;;25.20;57.90;;;;;;10292005;28;94650;-65
2023/07/12 02:58:29;;;;;;;;;;;25.20;57.80;;;;;;10291377;28;93561;-65
2023/07/12 03:03:31;;;;;;;;;;;25.10;57.70;;;;;;10292336;28;94507;-65
2023/07/12 03:08:33;;;;;;;;;;;25.20;57.80;;;;;;10257326;28;94710;-66
2023/07/12 03:13:35;;;;;;;;;;;25.10;57.70;;;;;;10292460;28;93491;-65
2023/07/12 03:18:36;;;;;;;;;;;25.10;57.60;;;;;;10290869;28;93919;-65
2023/07/12 03:23:38;;;;;;;;;;;25.10;57.60;;;;;;10290788;28;93467;-68
2023/07/12 03:28:40;;;;;;;;;;;25.10;57.60;;;;;;10288973;28;97328;-65
2023/07/12 03:33:45;;;;;;;;;;;25.10;57.60;;;;;;10273126;28;93029;-65
2023/07/12 03:38:47;;;;;;;;;;;25.10;57.50;;;;;;10273756;28;94668;-65
2023/07/12 03:43:48;;;;;;;;;;;25.10;57.50;;;;;;10289504;28;94358;-65
2023/07/12 03:48:50;;;;;;;;;;;25.10;57.50;;;;;;10289641;28;93694;-61
2023/07/12 03:53:52;;;;;;;;;;;25.10;57.50;;;;;;10272203;28;93578;-62
2023/07/12 03:58:54;;;;;;;;;;;25.10;57.50;;;;;;10290324;28;93807;-62
2023/07/12 04:03:55;;;;;;;;;;;25.10;57.50;;;;;;10291277;28;95284;-62
2023/07/12 04:08:57;;;;;;;;;;;25.10;57.40;;;;;;10273097;28;93717;-61
2023/07/12 04:13:59;;;;;;;;;;;25.10;57.40;;;;;;10289763;28;94541;-62
2023/07/12 04:19:01;;;;;;;;;;;25.10;57.30;;;;;;10287012;28;97117;-61
2023/07/12 04:24:04;;;;;;;;;;;25.10;57.40;;;;;;10290166;28;95118;-60
2023/07/12 04:29:06;;;;;;;;;;;25.10;57.40;;;;;;10288909;28;93600;-61
2023/07/12 04:34:07;;;;;;;;;;;25.10;57.40;;;;;;10288386;28;93570;-61
2023/07/12 04:39:09;;;;;;;;;;;25.00;57.30;;;;;;10288542;28;94532;-61
2023/07/12 04:44:13;;;;;;;;;;;25.10;57.30;;;;;;10289133;28;94798;-62
2023/07/12 04:49:15;;;;;;;;;;;25.10;57.30;;;;;;10739412;22;96080;-60
2023/07/12 04:54:17;;;;;;;;;;;25.00;57.30;;;;;;10311214;28;93894;-61
2023/07/12 04:59:19;;;;;;;;;;;25.00;57.40;;;;;;10310934;28;94448;-61
2023/07/12 05:04:21;;;;;;;;;;;25.00;57.30;;;;;;10328811;28;93703;-63
2023/07/12 05:09:23;;;;;;;;;;;25.00;58.40;;;;;;10325652;28;96826;-63
2023/07/12 05:14:24;;;;;;;;;;;24.80;57.30;;;;;;10328515;28;94833;-64
2023/07/12 05:19:26;;;;;;;;;;;24.40;57.90;;;;;;10327960;28;93518;-65
2023/07/12 05:24:28;;;;;;;;;;;24.10;58.60;;;;;;10327300;28;93967;-63
2023/07/12 05:29:30;;;;;;;;;;;23.80;59.40;;;;;;10326925;28;94689;-64
2023/07/12 05:34:31;;;;;;;;;;;23.60;60.00;;;;;;10340301;28;93470;-63
2023/07/12 05:39:33;;;;;;;;;;;23.50;61.00;;;;;;10341026;28;93566;-62
2023/07/12 05:44:35;;;;;;;;;;;23.60;61.40;;;;;;10341825;28;92687;-63
2023/07/12 05:49:36;;;;;;;;;;;23.80;61.10;;;;;;10340716;28;94558;-63
2023/07/12 05:54:38;;;;;;;;;;;23.90;60.60;;;;;;10339556;28;93541;-63
2023/07/12 05:59:40;;;;;;;;;;;24.00;60.30;;;;;;10337602;28;99450;-63
2023/07/12 06:04:42;;;;;;;;;;;24.20;60.10;;;;;;10339416;28;93653;-64
2023/07/12 06:09:44;;;;;;;;;;;24.20;59.80;;;;;;10339265;28;93482;-61
2023/07/12 06:14:45;;;;;;;;;;;24.30;59.50;;;;;;10341289;28;94592;-64
2023/07/12 06:19:47;;;;;;;;;;;24.30;59.40;;;;;;10340643;28;94509;-63
2023/07/12 06:24:49;;;;;;;;;;;24.40;59.30;;;;;;10340459;28;94857;-63
2023/07/12 06:29:50;;;;;;;;;;;24.40;58.90;;;;;;10340174;28;94791;-64
2023/07/12 06:34:52;;;;;;;;;;;24.50;59.00;;;;;;10340798;28;93739;-64
2023/07/12 06:39:54;;;;;;;;;;;24.50;58.80;;;;;;10339368;28;93603;-64
2023/07/12 06:44:56;;;;;;;;;;;24.50;58.60;;;;;;10334469;28;93484;-63
2023/07/12 06:49:57;;;;;;;;;;;24.50;58.60;;;;;;10329701;28;96880;-63
2023/07/12 06:54:59;;;;;;;;;;;24.50;58.60;;;;;;10332627;28;93635;-63
2023/07/12 07:00:05;;;;;;;;;;;24.50;58.50;;;;;;10332332;28;94214;-65
2023/07/12 07:05:09;;;;;;;;;;;24.50;58.30;;;;;;10332141;28;94534;-64
2023/07/12 07:10:11;;;;;;;;;;;24.50;58.10;;;;;;10313783;28;93405;-64
2023/07/12 07:15:12;;;;;;;;;;;24.60;58.00;;;;;;10331416;28;93610;-65
2023/07/12 07:20:14;;;;;;;;;;;24.60;57.70;;;;;;10332270;28;93497;-64
2023/07/12 07:25:16;;;;;;;;;;;24.70;57.70;;;;;;10314450;28;92932;-65
2023/07/12 07:30:22;;;;;;;;;;;24.70;57.70;;;;;;10314606;28;93645;-64
2023/07/12 07:35:24;;;;;;;;;;;24.70;57.70;;;;;;10332144;28;94806;-65
2023/07/12 07:40:26;;;;;;;;;;;24.70;57.60;;;;;;10328342;28;95892;-65
2023/07/12 07:45:28;;;;;;;;;;;24.70;57.50;;;;;;10331072;28;93537;-64
2023/07/12 07:50:29;;;;;;;;;;;24.70;57.50;;;;;;10330214;28;94522;-64
2023/07/12 07:55:32;;;;;;;;;;;24.70;57.60;;;;;;10330925;28;94449;-65
2023/07/12 08:00:33;;;;;;;;;;;24.70;57.50;;;;;;10330397;28;94559;-64
2023/07/12 08:05:35;;;;;;;;;;;24.70;57.60;;;;;;10312952;28;93532;-64
2023/07/12 08:10:37;;;;;;;;;;;24.70;57.60;;;;;;10330853;28;94537;-64
2023/07/12 08:15:39;;;;;;;;;;;24.70;57.60;;;;;;10330442;28;92840;-64
2023/07/12 08:20:41;;;;;;;;;;;24.70;57.60;;;;;;10296740;28;93514;-65
2023/07/12 08:25:43;;;;;;;;;;;24.70;57.60;;;;;;10329674;28;93438;-65
2023/07/12 08:30:45;;;;;;;;;;;24.70;57.60;;;;;;10326434;28;96140;-64
2023/07/12 08:35:47;;;;;;;;;;;24.60;57.50;;;;;;10330345;28;96604;-65
2023/07/12 08:40:51;;;;;;;;;;;24.70;57.70;;;;;;10329721;28;94459;-64
2023/07/12 08:45:53;;;;;;;;;;;24.70;57.60;;;;;;10330353;28;94603;-64
2023/07/12 08:50:55;;;;;;;;;;;24.70;57.50;;;;;;10310972;28;94423;-65
2023/07/12 08:56:00;;;;;;;;;;;24.70;57.40;;;;;;10329990;28;95623;-64
2023/07/12 09:01:06;;;;;;;;;;;24.70;57.40;;;;;;10329098;28;93436;-64
2023/07/12 09:06:12;;;;;;;;;;;24.70;57.30;;;;;;10310793;28;92669;-64
2023/07/12 09:11:15;;;;;;;;;;;24.70;57.50;;;;;;10328607;28;93442;-65
2023/07/12 09:16:31;;;;;;;;;;;24.80;57.50;;;;;;10311589;28;94745;-64
2023/07/12 09:21:36;;;;;;;;;;;24.80;57.50;;;;;;10324916;28;95784;-64
2023/07/12 09:26:38;;;;;;;;;;;24.70;57.40;;;;;;10327857;28;93520;-64
2023/07/12 09:31:41;;;;;;;;;;;24.80;57.50;;;;;;10327551;28;92819;-64
2023/07/12 09:36:43;;;;;;;;;;;24.80;57.50;;;;;;10327861;28;93446;-64
2023/07/12 09:41:50;;;;;;;;;;;24.70;57.40;;;;;;10326892;28;94696;-63
2023/07/12 09:47:02;;;;;;;;;;;24.70;57.40;;;;;;10328459;28;94439;-64
2023/07/12 09:52:17;;;;;;;;;;;24.80;57.40;;;;;;10326761;28;94467;-64
2023/07/12 09:57:35;;;;;;;;;;;24.80;57.30;;;;;;10328327;28;93843;-64
2023/07/12 10:02:59;;;;;;;;;;;24.80;57.10;;;;;;10327024;28;93443;-65
2023/07/12 10:08:04;;;;;;;;;;;24.90;57.10;;;;;;10327016;28;93394;-64
2023/07/12 10:13:24;;;;;;;;;;;24.90;56.80;;;;;;10323662;28;96083;-64
2023/07/12 10:18:28;;;;;;;;;;;25.00;56.50;;;;;;10330035;28;94977;-64
2023/07/12 10:23:36;;;;;;;;;;;25.20;56.30;;;;;;10332576;28;93926;-65
2023/07/12 10:28:40;;;;;;;;;;;25.20;56.00;;;;;;10333571;28;93627;-64
2023/07/12 10:33:44;;;;;;;;;;;25.30;55.90;;;;;;10333353;28;92566;-64
2023/07/12 10:38:46;;;;;;;;;;;25.30;55.70;;;;;;10333800;28;93980;-64
2023/07/12 10:43:56;;;;;;;;;;;25.30;55.70;;;;;;10332401;28;93493;-64
2023/07/12 10:49:01;;;;;;;;;;;25.30;55.60;;;;;;10333488;28;92887;-64
2023/07/12 10:54:04;;;;;;;;;;;25.30;55.60;;;;;;10315045;28;93526;-64
2023/07/12 10:59:27;;;;;;;;;;;25.30;55.50;;;;;;10332491;28;113872;-64
2023/07/12 11:04:29;;;;;;;;;;;25.30;55.50;;;;;;10329985;28;95865;-64
2023/07/12 11:09:45;;;;;;;;;;;25.30;55.40;;;;;;10331275;28;94122;-62
2023/07/12 11:14:50;;;;;;;;;;;25.30;55.40;;;;;;10332645;28;94472;-64
2023/07/12 11:20:03;;;;;;;;;;;25.30;55.60;;;;;;10331391;28;93529;-64
2023/07/12 11:25:21;;;;;;;;;;;25.30;55.60;;;;;;10331798;28;92473;-64
2023/07/12 11:30:36;;;;;;;;;;;25.30;55.60;;;;;;10330419;28;92545;-65
2023/07/12 11:35:50;;;;;;;;;;;25.30;55.60;;;;;;10313942;28;96594;-64
2023/07/12 11:40:53;;;;;;;;;;;25.20;55.30;;;;;;10331249;28;93687;-65
2023/07/12 11:45:56;;;;;;;;;;;25.20;55.50;;;;;;10330986;28;93703;-64
2023/07/12 11:51:01;;;;;;;;;;;25.10;55.50;;;;;;10312242;28;94453;-64
2023/07/12 11:56:04;;;;;;;;;;;25.10;55.50;;;;;;10311101;28;97034;-64
2023/07/12 12:01:13;;;;;;;;;;;25.10;55.30;;;;;;10328393;28;94461;-64
2023/07/12 12:06:14;;;;;;;;;;;25.10;55.30;;;;;;10326680;28;93511;-64
2023/07/12 12:11:16;;;;;;;;;;;25.00;55.00;;;;;;10326589;28;94317;-65
2023/07/12 12:16:29;;;;;;;;;;;25.10;55.20;;;;;;10325856;28;92748;-64
2023/07/12 12:21:31;;;;;;;;;;;25.00;55.10;;;;;;10329615;28;94142;-64
2023/07/12 12:26:36;;;;;;;;;;;25.10;55.10;;;;;;10309682;28;93525;-65
2023/07/12 12:31:48;;;;;;;;;;;25.10;55.00;;;;;;10326915;28;93712;-65
2023/07/12 12:36:56;;;;;;;;;;;25.10;55.00;;;;;;10325323;28;93509;-65
2023/07/12 12:41:59;;;;;;;;;;;25.10;55.10;;;;;;10328363;28;95250;-65
2023/07/12 12:47:10;;;;;;;;;;;25.10;55.00;;;;;;10326234;28;96066;-65
2023/07/12 12:52:24;;;;;;;;;;;25.10;54.90;;;;;;10328879;28;93466;-65
2023/07/12 12:57:29;;;;;;;;;;;25.10;55.00;;;;;;10329235;28;94280;-64
2023/07/12 13:02:34;;;;;;;;;;;25.10;55.00;;;;;;10327630;28;94049;-64
2023/07/12 13:07:39;;;;;;;;;;;25.10;55.00;;;;;;10326914;28;94066;-65
2023/07/12 13:13:03;;;;;;;;;;;25.10;54.80;;;;;;10314047;28;93167;-65
2023/07/12 13:18:11;;;;;;;;;;;25.10;54.80;;;;;;10327385;28;93132;-64
2023/07/12 13:23:33;;;;;;;;;;;25.10;54.60;;;;;;10328085;28;95481;-65
2023/07/12 13:28:37;;;;;;;;;;;25.10;54.50;;;;;;10326939;28;93204;-64
2023/07/12 13:33:39;;;;;;;;;;;25.20;54.50;;;;;;10328603;28;92551;-64
2023/07/12 13:38:41;;;;;;;;;;;25.20;54.30;;;;;;10291145;28;95280;-64
2023/07/12 13:44:03;;;;;;;;;;;25.20;54.20;;;;;;10326164;28;94922;-64
2023/07/12 13:49:10;;;;;;;;;;;25.20;54.30;;;;;;10326542;28;94065;-65
2023/07/12 13:54:12;;;;;;;;;;;25.10;54.30;;;;;;10330728;28;93503;-65
2023/07/12 13:59:14;;;;;;;;;;;25.10;54.30;;;;;;10334285;28;94690;-65
2023/07/12 14:04:19;;;;;;;;;;;25.10;55.40;;;;;;10334603;28;93536;-65
2023/07/12 14:09:26;;;;;;;;;;;25.10;54.50;;;;;;10334927;28;94673;-64
2023/07/12 14:14:28;;;;;;;;;;;25.10;54.30;;;;;;10334721;28;92201;-65
2023/07/12 14:19:29;;;;;;;;;;;25.10;54.40;;;;;;10334068;28;94479;-65
2023/07/12 14:24:33;;;;;;;;;;;25.10;54.40;;;;;;10333296;28;93366;-65
2023/07/12 14:29:34;;;;;;;;;;;25.10;54.20;;;;;;10326805;28;96856;-64
2023/07/12 14:34:39;;;;;;;;;;;25.10;52.30;;;;;;10328708;28;93376;-64
2023/07/12 14:39:41;;;;;;;;;;;24.80;49.90;;;;;;10309418;28;95320;-63
2023/07/12 14:44:43;;;;;;;;;;;24.60;49.90;;;;;;10328915;28;94358;-63
2023/07/12 14:49:45;;;;;;;;;;;24.50;50.40;;;;;;10333054;28;94477;-64
2023/07/12 14:54:47;;;;;;;;;;;24.40;51.30;;;;;;10332295;28;93230;-63
2023/07/12 14:59:59;;;;;;;;;;;24.40;51.30;;;;;;10333482;28;94675;-63
2023/07/12 15:05:01;;;;;;;;;;;24.40;50.70;;;;;;10331980;28;93465;-63
2023/07/12 15:10:06;;;;;;;;;;;24.40;50.30;;;;;;10332422;28;94633;-64
2023/07/12 15:15:08;;;;;;;;;;;24.40;50.20;;;;;;10314037;28;94985;-62
2023/07/12 15:20:13;;;;;;;;;;;24.40;50.10;;;;;;10330127;28;96211;-60
2023/07/12 15:25:19;;;;;;;;;;;24.40;49.40;;;;;;10331398;28;94750;-61
2023/07/12 15:30:23;;;;;;;;;;;24.40;48.30;;;;;;10331460;28;94472;-61
2023/07/12 15:35:35;;;;;;;;;;;24.40;48.40;;;;;;10330262;28;94945;-63
2023/07/12 15:40:47;;;;;;;;;;;24.40;47.80;;;;;;10324480;28;94320;-64
2023/07/12 15:45:49;;;;;;;;;;;24.30;48.10;;;;;;10325229;28;94656;-63
2023/07/12 15:50:53;;;;;;;;;;;24.30;47.40;;;;;;10325752;28;93684;-63
2023/07/12 15:55:54;;;;;;;;;;;24.10;48.00;;;;;;10325374;28;92958;-66
2023/07/12 16:00:57;;;;;;;;;;;24.00;49.90;;;;;;10306602;28;94499;-63
2023/07/12 16:05:59;;;;;;;;;;;24.00;48.70;;;;;;10292081;28;93588;-66
2023/07/12 16:11:10;;;;;;;;;;;24.00;48.40;;;;;;10286903;28;95454;-64
2023/07/12 16:16:16;;;;;;;;;;;24.10;48.90;;;;;;10289192;28;94599;-67
2023/07/12 16:21:19;;;;;;;;;;;24.10;49.80;;;;;;10288183;28;94536;-64
2023/07/12 16:26:24;;;;;;;;;;;24.10;48.10;;;;;;10303032;28;93122;-65
2023/07/12 16:31:32;;;;;;;;;;;24.00;47.40;;;;;;10270951;28;93548;-65
2023/07/12 16:36:34;;;;;;;;;;;24.00;48.50;;;;;;10287147;28;93902;-63
2023/07/12 16:41:39;;;;;;;;;;;24.00;47.10;;;;;;10284666;28;92994;-63
2023/07/12 16:46:41;;;;;;;;;;;24.00;47.40;;;;;;10267662;28;93638;-63
2023/07/12 16:51:50;;;;;;;;;;;24.00;47.00;;;;;;10242324;28;93764;-63
2023/07/12 16:56:53;;;;;;;;;;;24.00;47.00;;;;;;10245105;28;94761;-66
2023/07/12 17:01:55;;;;;;;;;;;23.90;47.10;;;;;;10244068;28;97014;-64
2023/07/12 17:06:57;;;;;;;;;;;23.90;47.10;;;;;;10248139;28;94452;-67
2023/07/12 17:11:59;;;;;;;;;;;23.90;47.00;;;;;;10262933;28;94551;-68
2023/07/12 17:17:01;;;;;;;;;;;23.90;47.00;;;;;;10273455;28;94679;-68
2023/07/12 17:22:03;;;;;;;;;;;23.90;47.50;;;;;;10286979;28;94454;-68
2023/07/12 17:27:08;;;;;;;;;;;23.80;46.90;;;;;;10285993;28;94730;-68
2023/07/12 17:32:11;;;;;;;;;;;23.80;46.90;;;;;;10277274;28;94430;-69
2023/07/12 17:37:16;;;;;;;;;;;23.90;47.10;;;;;;10257402;28;93668;-68
2023/07/12 17:42:18;;;;;;;;;;;23.90;46.90;;;;;;10252878;28;94704;-63
2023/07/12 17:47:20;;;;;;;;;;;23.80;47.30;;;;;;10275784;28;94753;-63
2023/07/12 17:52:22;;;;;;;;;;;23.90;48.00;;;;;;10282532;28;96608;-62
2023/07/12 17:57:24;;;;;;;;;;;24.00;48.00;;;;;;10285824;28;93517;-63
2023/07/12 18:02:26;;;;;;;;;;;24.00;47.80;;;;;;10282915;28;94715;-64
2023/07/12 18:07:30;;;;;;;;;;;23.90;47.80;;;;;;10284935;28;93477;-63
2023/07/12 18:12:31;;;;;;;;;;;23.90;47.90;;;;;;10285198;28;93676;-63
2023/07/12 18:17:33;;;;;;;;;;;23.90;47.70;;;;;;10285431;28;93049;-63
2023/07/12 18:22:35;;;;;;;;;;;24.00;47.90;;;;;;10283765;28;93336;-63
2023/07/12 18:27:37;;;;;;;;;;;24.10;48.10;;;;;;10285062;28;92894;-62
2023/07/12 18:32:39;;;;;;;;;;;24.20;47.50;;;;;;10283116;28;94535;-63
2023/07/12 18:37:41;;;;;;;;;;;24.20;47.60;;;;;;10283669;28;93558;-63
2023/07/12 18:42:42;;;;;;;;;;;24.30;47.40;;;;;;10269589;28;96378;-67
2023/07/12 18:47:46;;;;;;;;;;;24.40;47.40;;;;;;10254556;28;92958;-68
2023/07/12 18:52:48;;;;;;;;;;;24.30;47.20;;;;;;10310121;28;93489;-63
2023/07/12 18:57:52;;;;;;;;;;;24.20;47.30;;;;;;10291103;28;95359;-63
2023/07/12 19:02:53;;;;;;;;;;;24.10;46.70;;;;;;10305163;28;93589;-63
2023/07/12 19:07:56;;;;;;;;;;;24.00;45.90;;;;;;10302040;28;93401;-62
2023/07/12 19:12:58;;;;;;;;;;;24.00;45.60;;;;;;10323459;28;94150;-63
2023/07/12 19:17:59;;;;;;;;;;;24.00;45.70;;;;;;10313378;28;94027;-63
2023/07/12 19:23:01;;;;;;;;;;;24.00;46.50;;;;;;10329115;28;94476;-63
2023/07/12 19:28:04;;;;;;;;;;;24.20;46.80;;;;;;10329716;28;94546;-63
2023/07/12 19:33:13;;;;;;;;;;;24.30;46.70;;;;;;10326894;28;95181;-63
2023/07/12 19:38:14;;;;;;;;;;;24.40;47.10;;;;;;10330895;28;94439;-64
2023/07/12 19:43:16;;;;;;;;;;;24.50;47.20;;;;;;10329144;28;94642;-64
2023/07/12 19:48:18;;;;;;;;;;;24.50;47.10;;;;;;10310587;28;93951;-64
2023/07/12 19:53:21;;;;;;;;;;;24.60;47.10;;;;;;10327988;28;93509;-64
2023/07/12 19:58:28;;;;;;;;;;;24.60;47.30;;;;;;10311568;28;93483;-64
2023/07/12 20:03:29;;;;;;;;;;;24.60;47.50;;;;;;10326932;28;94308;-64
2023/07/12 20:08:31;;;;;;;;;;;24.60;47.70;;;;;;10315343;28;93626;-70
2023/07/12 20:13:33;;;;;;;;;;;24.70;48.00;;;;;;10303862;28;94564;-70
2023/07/12 20:18:35;;;;;;;;;;;24.70;48.30;;;;;;10308652;28;94539;-69
2023/07/12 20:23:37;;;;;;;;;;;24.70;48.50;;;;;;10325982;28;97424;-70
2023/07/12 20:28:39;;;;;;;;;;;24.80;48.60;;;;;;10327166;28;93616;-70
2023/07/12 20:33:41;;;;;;;;;;;24.80;48.70;;;;;;10310099;28;94395;-70
2023/07/12 20:38:43;;;;;;;;;;;24.70;48.80;;;;;;10328145;28;94905;-70
2023/07/12 20:43:45;;;;;;;;;;;24.70;49.00;;;;;;10327056;28;94517;-70
2023/07/12 20:48:47;;;;;;;;;;;24.80;49.20;;;;;;10327467;28;95101;-70
2023/07/12 20:53:49;;;;;;;;;;;24.80;49.50;;;;;;10326911;28;93724;-69
2023/07/12 20:58:52;;;;;;;;;;;24.80;49.50;;;;;;10328733;28;94071;-68
2023/07/12 21:03:55;;;;;;;;;;;24.80;49.60;;;;;;10326945;28;94489;-69
2023/07/12 21:08:56;;;;;;;;;;;24.70;49.60;;;;;;10327014;28;93352;-69
2023/07/12 21:13:58;;;;;;;;;;;24.70;49.60;;;;;;10323819;28;97242;-69
2023/07/12 21:19:00;;;;;;;;;;;24.70;49.80;;;;;;10309167;28;93660;-69
2023/07/12 21:24:01;;;;;;;;;;;24.60;49.70;;;;;;10325376;28;94610;-68
2023/07/12 21:29:03;;;;;;;;;;;24.70;49.90;;;;;;10324597;28;94677;-69
2023/07/12 21:34:05;;;;;;;;;;;24.60;49.90;;;;;;10327050;28;93674;-68
2023/07/12 21:39:10;;;;;;;;;;;24.60;50.00;;;;;;10326193;28;92501;-67
2023/07/12 21:44:12;;;;;;;;;;;24.60;50.00;;;;;;10325937;28;93647;-66
2023/07/12 21:49:14;;;;;;;;;;;24.60;50.00;;;;;;10325652;28;92847;-67
2023/07/12 21:54:15;;;;;;;;;;;24.60;50.10;;;;;;10325850;28;92761;-66
2023/07/12 21:59:17;;;;;;;;;;;24.60;50.20;;;;;;10325678;28;93540;-67
2023/07/12 22:04:20;;;;;;;;;;;24.60;50.20;;;;;;10322580;28;96582;-66
2023/07/12 22:09:22;;;;;;;;;;;24.60;50.30;;;;;;10325256;28;93780;-67
2023/07/12 22:14:23;;;;;;;;;;;24.60;50.40;;;;;;10329397;28;94525;-67
2023/07/12 22:19:25;;;;;;;;;;;24.60;50.40;;;;;;10314730;28;92938;-66
2023/07/12 22:24:27;;;;;;;;;;;24.60;50.50;;;;;;10332422;28;93537;-67
2023/07/12 22:29:29;;;;;;;;;;;24.60;50.50;;;;;;10333115;28;94139;-69
2023/07/12 22:34:31;;;;;;;;;;;24.60;50.60;;;;;;10332321;28;92965;-68
2023/07/12 22:39:33;;;;;;;;;;;24.60;50.60;;;;;;10333318;28;91859;-67
2023/07/12 22:44:34;;;;;;;;;;;24.60;50.70;;;;;;10314886;28;94754;-68
2023/07/12 22:49:36;;;;;;;;;;;24.60;50.80;;;;;;10330938;28;93776;-67
2023/07/12 22:54:38;;;;;;;;;;;24.60;50.90;;;;;;10328629;28;95911;-68
2023/07/12 22:59:40;;;;;;;;;;;24.50;50.80;;;;;;10331287;28;93435;-67
2023/07/12 23:04:41;;;;;;;;;;;24.60;50.90;;;;;;10331252;28;93445;-67
2023/07/12 23:09:43;;;;;;;;;;;24.50;51.10;;;;;;10331566;28;93508;-69
2023/07/12 23:14:45;;;;;;;;;;;24.50;51.20;;;;;;10331139;28;93747;-67
2023/07/12 23:32:03;;;;;;;;;;;24.50;51.40;;;;;;10331395;28;92098;-68
2023/07/12 23:37:05;;;;;;;;;;;24.40;51.50;;;;;;10329751;28;92983;-68
2023/07/12 23:42:17;;;;;;;;;;;24.40;51.80;;;;;;10330054;28;94509;-68
2023/07/12 23:47:18;;;;;;;;;;;24.40;51.90;;;;;;10310021;28;97091;-67
2023/07/12 23:52:21;;;;;;;;;;;24.40;52.00;;;;;;10330619;28;94538;-67
2023/07/12 23:57:22;;;;;;;;;;;24.40;52.00;;;;;;10330099;28;94631;-67
